Decoded Metar for LZZI (ZILINA in SLOVAKIA) (IATA:N/A) | Meteo·Mobile Aviation Weather
aviador You're here:

LZZI Decoded Metar

ZILINA in SLOVAKIA
Report Time2018-08-22 04:00:00
UTC Time2018-08-22 04:30:13
Flight Rules vfr VFR
WindVRB at 02 kt
Visibility9999 m
Phenomena:N/A
Clouds:N/A
Expected CloudBase > 800 ft AGL from Temp-Dew spread
CeilingNone
Temp14°C (ISA +1)
Dew Point12°C (88% RH)
AAT13.9°C
QNH1021 hPa
Density Alt1,063 ft
Elevation1,020 ft
Report Wrong Elevation
Raw Report
LZZI 220400Z VRB02KT CAVOK 14/12 Q1021=

Extra information for LZZI:More info

Metar Taf Metar & Taf Last 4 Metars F.Rules Stats Wind Profile Meteogram Temp Stats Airport Information Weather charts Add Link Nearby VenuesMetar ALERT Operation Metar Decoded Social comments